Time;durP1;ratioP1;P1;durP2;ratioP2;P2;SDS_P1;SDS_P2;PMS_P1;PMS_P2;Temp;Humidity;BMP_temperature;BMP_pressure;BME280_temperature;BME280_humidity;BME280_pressure;Samples;Min_cycle;Max_cycle;Signal;HPM_P1;HPM_P2
2023/03/01 00:00:17;;;;;;;40.53;26.40;;;;;;;;;;5079981;28;20025;-93
2023/03/01 00:02:43;;;;;;;42.58;26.55;;;;;;;;;;5079806;28;20029;-92
2023/03/01 00:05:09;;;;;;;41.25;26.67;;;;;;;;;;5079460;28;20040;-92
2023/03/01 00:07:35;;;;;;;38.30;25.80;;;;;;;;;;5078112;28;20357;-92
2023/03/01 00:10:01;;;;;;;42.22;26.90;;;;;;;;;;5079209;28;20028;-91
2023/03/01 00:12:27;;;;;;;43.00;26.70;;;;;;;;;;5078370;28;20068;-92
2023/03/01 00:14:53;;;;;;;38.58;24.83;;;;;;;;;;5078226;28;20037;-91
2023/03/01 00:17:19;;;;;;;40.70;26.33;;;;;;;;;;5078269;28;20027;-91
2023/03/01 00:19:45;;;;;;;40.28;25.73;;;;;;;;;;5079292;28;20035;-91
2023/03/01 00:22:11;;;;;;;41.45;26.08;;;;;;;;;;5077069;28;20028;-89
2023/03/01 00:24:37;;;;;;;39.60;25.85;;;;;;;;;;5078109;28;20033;-89
2023/03/01 00:27:03;;;;;;;37.47;25.13;;;;;;;;;;5077926;28;20024;-89
2023/03/01 00:29:30;;;;;;;39.15;26.02;;;;;;;;;;5079212;28;20066;-89
2023/03/01 00:31:56;;;;;;;39.38;26.05;;;;;;;;;;5078833;28;20419;-90
2023/03/01 00:34:22;;;;;;;41.10;26.55;;;;;;;;;;5077951;28;20430;-90
2023/03/01 00:36:48;;;;;;;42.67;26.88;;;;;;;;;;5077857;28;20021;-90
2023/03/01 00:39:15;;;;;;;39.05;25.70;;;;;;;;;;5077942;28;20086;-90
2023/03/01 00:41:41;;;;;;;40.92;25.88;;;;;;;;;;5078646;28;20020;-89
2023/03/01 00:44:08;;;;;;;43.95;27.88;;;;;;;;;;5078822;28;20104;-90
2023/03/01 00:46:34;;;;;;;38.88;26.27;;;;;;;;;;5077716;28;20024;-90
2023/03/01 00:49:01;;;;;;;38.38;26.75;;;;;;;;;;5077668;28;20322;-89
2023/03/01 00:51:28;;;;;;;39.20;26.88;;;;;;;;;;5078756;28;20055;-90
2023/03/01 00:53:56;;;;;;;44.63;28.27;;;;;;;;;;5077442;28;20037;-89
2023/03/01 00:56:23;;;;;;;44.75;27.30;;;;;;;;;;5078738;28;20287;-90
2023/03/01 00:59:07;;;;;;;41.25;26.63;;;;;;;;;;5078036;28;20045;-91
2023/03/01 01:01:33;;;;;;;42.60;27.05;;;;;;;;;;5077243;28;20029;-90
2023/03/01 01:03:59;;;;;;;43.53;27.27;;;;;;;;;;5078291;28;20017;-90
2023/03/01 01:06:27;;;;;;;42.83;27.58;;;;;;;;;;5077419;28;20402;-89
2023/03/01 01:08:54;;;;;;;45.33;28.05;;;;;;;;;;5077626;28;20024;-89
2023/03/01 01:11:21;;;;;;;46.15;28.52;;;;;;;;;;5078036;28;20024;-89
2023/03/01 01:13:47;;;;;;;43.90;28.80;;;;;;;;;;5078088;28;20467;-90
2023/03/01 01:16:14;;;;;;;45.80;29.45;;;;;;;;;;5078169;28;20028;-90
2023/03/01 01:18:40;;;;;;;42.42;28.40;;;;;;;;;;5077000;28;20016;-91
2023/03/01 01:21:08;;;;;;;45.88;28.98;;;;;;;;;;5078264;28;20024;-89
2023/03/01 01:23:34;;;;;;;48.58;29.85;;;;;;;;;;5078023;28;20369;-89
2023/03/01 01:26:05;;;;;;;43.17;27.60;;;;;;;;;;5076680;28;20029;-89
2023/03/01 01:28:31;;;;;;;45.63;27.13;;;;;;;;;;5077936;28;20108;-89
2023/03/01 01:30:57;;;;;;;43.40;27.70;;;;;;;;;;5078105;28;20127;-90
2023/03/01 01:33:23;;;;;;;43.35;27.85;;;;;;;;;;5077611;28;20035;-90
2023/03/01 01:35:49;;;;;;;47.35;28.55;;;;;;;;;;5077295;28;20032;-91
2023/03/01 01:38:15;;;;;;;44.10;28.63;;;;;;;;;;5093803;28;20028;-90
2023/03/01 01:40:45;;;;;;;45.90;29.15;;;;;;;;;;5097677;28;20066;-89
2023/03/01 01:46:21;;;;;;;47.42;28.98;;;;;;;;;;5098130;28;20098;-90
2023/03/01 01:48:52;;;;;;;46.08;29.13;;;;;;;;;;5097041;28;20020;-90
2023/03/01 01:51:20;;;;;;;46.13;29.40;;;;;;;;;;5096907;28;20028;-90
2023/03/01 01:53:49;;;;;;;44.30;28.67;;;;;;;;;;5096611;28;20043;-90
2023/03/01 01:56:16;;;;;;;45.90;29.48;;;;;;;;;;5096008;28;20028;-90
2023/03/01 01:58:43;;;;;;;46.15;28.77;;;;;;;;;;5077346;28;20076;-90
2023/03/01 02:01:09;;;;;;;43.83;29.13;;;;;;;;;;5078091;28;20024;-90
2023/03/01 02:03:41;;;;;;;48.42;29.15;;;;;;;;;;5077612;28;20032;-90
2023/03/01 02:06:12;;;;;;;47.97;29.52;;;;;;;;;;5076573;28;20024;-91
2023/03/01 02:08:41;;;;;;;46.20;28.88;;;;;;;;;;5076599;28;20040;-91
2023/03/01 02:11:07;;;;;;;50.13;28.92;;;;;;;;;;5095480;28;20032;-92
2023/03/01 02:13:34;;;;;;;47.05;29.40;;;;;;;;;;5097775;28;20028;-91
2023/03/01 02:16:03;;;;;;;46.63;28.45;;;;;;;;;;5096650;28;20023;-91
2023/03/01 02:18:29;;;;;;;48.72;28.95;;;;;;;;;;5097301;28;20031;-90
2023/03/01 02:21:13;;;;;;;48.78;30.08;;;;;;;;;;5097700;28;20030;-90
2023/03/01 02:23:39;;;;;;;50.08;28.88;;;;;;;;;;5096463;28;20036;-92
2023/03/01 02:26:18;;;;;;;45.38;28.95;;;;;;;;;;5096675;28;20024;-92
2023/03/01 02:31:48;;;;;;;44.92;28.30;;;;;;;;;;5097467;28;20036;-89
2023/03/01 02:34:16;;;;;;;48.67;30.00;;;;;;;;;;5079826;28;20024;-90
2023/03/01 02:36:45;;;;;;;47.38;29.13;;;;;;;;;;5076251;28;20082;-90
2023/03/01 02:39:16;;;;;;;49.75;30.95;;;;;;;;;;5077445;28;20039;-91
2023/03/01 02:41:46;;;;;;;49.00;30.83;;;;;;;;;;5076552;28;20031;-91
2023/03/01 02:50:28;;;;;;;45.88;29.48;;;;;;;;;;5081028;28;20077;-92
2023/03/01 02:53:13;;;;;;;44.53;26.98;;;;;;;;;;5080128;28;20135;-91
2023/03/01 02:55:39;;;;;;;48.40;29.58;;;;;;;;;;5079891;28;20115;-89
2023/03/01 02:58:06;;;;;;;44.47;27.88;;;;;;;;;;5080451;28;20085;-89
2023/03/01 03:00:39;;;;;;;46.40;28.25;;;;;;;;;;5080960;28;20037;-89
2023/03/01 03:03:05;;;;;;;45.85;27.98;;;;;;;;;;5079757;28;20020;-91
2023/03/01 03:05:31;;;;;;;43.92;27.67;;;;;;;;;;5080439;28;20024;-92
2023/03/01 03:07:58;;;;;;;43.60;27.60;;;;;;;;;;5088269;28;20024;-91
2023/03/01 03:10:26;;;;;;;46.10;26.90;;;;;;;;;;5100983;28;20024;-92
2023/03/01 03:13:00;;;;;;;45.00;27.52;;;;;;;;;;5101094;28;20030;-90
2023/03/01 03:15:27;;;;;;;41.20;26.42;;;;;;;;;;5099610;28;20031;-91
2023/03/01 03:17:53;;;;;;;40.65;26.50;;;;;;;;;;5100599;28;20028;-92
2023/03/01 03:20:21;;;;;;;41.90;26.17;;;;;;;;;;5100610;28;20463;-93
2023/03/01 03:22:48;;;;;;;38.72;24.88;;;;;;;;;;5100862;28;20356;-90
2023/03/01 03:25:14;;;;;;;40.22;24.73;;;;;;;;;;5100559;28;20028;-91
2023/03/01 03:27:42;;;;;;;40.25;25.33;;;;;;;;;;5099274;28;20031;-90
2023/03/01 03:33:25;;;;;;;42.55;26.10;;;;;;;;;;5100740;28;20062;-92
2023/03/01 03:35:51;;;;;;;40.38;25.45;;;;;;;;;;5093020;28;20062;-91
2023/03/01 03:38:21;;;;;;;40.78;26.10;;;;;;;;;;5079832;28;20139;-92
2023/03/01 03:40:51;;;;;;;38.15;24.85;;;;;;;;;;5080188;28;20017;-92
2023/03/01 03:43:19;;;;;;;38.03;24.65;;;;;;;;;;5079891;28;20032;-91
2023/03/01 03:45:45;;;;;;;42.42;24.63;;;;;;;;;;5078894;28;20314;-91
2023/03/01 03:48:12;;;;;;;39.50;24.80;;;;;;;;;;5078833;28;20029;-91
2023/03/01 03:50:39;;;;;;;41.70;24.90;;;;;;;;;;5078849;28;20044;-91
2023/03/01 03:53:06;;;;;;;36.95;24.17;;;;;;;;;;5078961;28;20024;-93
2023/03/01 03:55:33;;;;;;;40.15;25.40;;;;;;;;;;5079510;28;20434;-92
2023/03/01 03:58:06;;;;;;;39.67;25.17;;;;;;;;;;5079456;28;20135;-92
2023/03/01 04:00:33;;;;;;;41.30;25.48;;;;;;;;;;5079564;28;20032;-92
2023/03/01 04:03:00;;;;;;;41.60;26.27;;;;;;;;;;5079924;28;20025;-91
2023/03/01 04:05:27;;;;;;;39.97;25.13;;;;;;;;;;5079712;28;20031;-91
2023/03/01 04:08:00;;;;;;;37.88;25.63;;;;;;;;;;5079621;28;20028;-91
2023/03/01 04:10:27;;;;;;;40.30;25.23;;;;;;;;;;5078709;28;20088;-91
2023/03/01 04:12:55;;;;;;;54.35;30.85;;;;;;;;;;5079273;28;20406;-92
2023/03/01 04:15:40;;;;;;;62.85;34.60;;;;;;;;;;5078445;28;20048;-90
2023/03/01 04:18:06;;;;;;;58.13;33.33;;;;;;;;;;5079351;28;20028;-91
2023/03/01 04:20:34;;;;;;;63.47;34.13;;;;;;;;;;5078223;28;20032;-91
2023/03/01 04:23:20;;;;;;;50.67;29.92;;;;;;;;;;5079416;28;20115;-90
2023/03/01 04:25:54;;;;;;;52.25;31.40;;;;;;;;;;5083881;28;20028;-88
2023/03/01 04:28:25;;;;;;;87.30;36.28;;;;;;;;;;5078061;28;20028;-89
2023/03/01 04:31:23;;;;;;;103.68;40.70;;;;;;;;;;5078270;28;20386;-89
2023/03/01 04:33:51;;;;;;;117.07;42.65;;;;;;;;;;5078724;28;20067;-89
2023/03/01 04:36:17;;;;;;;106.38;40.47;;;;;;;;;;5092832;28;20035;-90
2023/03/01 04:38:47;;;;;;;72.80;33.45;;;;;;;;;;5098648;28;20035;-90
2023/03/01 04:41:13;;;;;;;62.72;30.90;;;;;;;;;;5079233;28;20028;-91
2023/03/01 04:43:39;;;;;;;53.03;29.90;;;;;;;;;;5088659;28;20083;-91
2023/03/01 04:46:08;;;;;;;44.70;28.10;;;;;;;;;;5098871;28;20437;-92
2023/03/01 04:48:35;;;;;;;47.08;28.48;;;;;;;;;;5101477;28;20028;-91
2023/03/01 04:51:01;;;;;;;62.17;34.30;;;;;;;;;;5099214;28;20039;-91
2023/03/01 04:53:28;;;;;;;55.72;33.30;;;;;;;;;;5114846;28;20027;-93
2023/03/01 04:55:55;;;;;;;49.08;30.40;;;;;;;;;;5098925;28;20032;-92
2023/03/01 04:58:22;;;;;;;52.45;31.38;;;;;;;;;;5114475;28;20040;-93
2023/03/01 05:03:52;;;;;;;61.38;35.78;;;;;;;;;;5098792;28;20035;-93
2023/03/01 05:06:19;;;;;;;46.40;27.75;;;;;;;;;;5114078;28;20453;-93
2023/03/01 05:08:45;;;;;;;54.95;32.08;;;;;;;;;;5114002;28;20038;-94
2023/03/01 05:11:11;;;;;;;64.57;32.53;;;;;;;;;;5098593;28;20020;-93
2023/03/01 05:13:38;;;;;;;69.78;35.08;;;;;;;;;;5098731;28;20024;-93
2023/03/01 05:16:05;;;;;;;70.70;36.90;;;;;;;;;;5098445;28;20046;-93
2023/03/01 05:18:32;;;;;;;79.93;41.35;;;;;;;;;;5098614;28;20028;-92
2023/03/01 05:21:03;;;;;;;80.78;40.53;;;;;;;;;;5114400;28;20026;-94
2023/03/01 05:23:30;;;;;;;73.50;37.60;;;;;;;;;;5113662;28;20044;-95
2023/03/01 05:25:59;;;;;;;77.78;40.55;;;;;;;;;;5097969;28;20032;-94
2023/03/01 05:28:25;;;;;;;69.28;38.03;;;;;;;;;;5098219;28;20303;-92
2023/03/01 05:30:52;;;;;;;73.97;37.00;;;;;;;;;;5097201;28;20060;-92
2023/03/01 05:33:18;;;;;;;88.07;41.38;;;;;;;;;;5081124;28;20415;-92
2023/03/01 05:35:45;;;;;;;101.18;44.85;;;;;;;;;;5086851;28;20024;-92
2023/03/01 05:38:15;;;;;;;89.93;43.28;;;;;;;;;;5077048;28;20028;-93
2023/03/01 05:40:43;;;;;;;100.13;45.72;;;;;;;;;;5076924;28;20043;-92
2023/03/01 05:43:09;;;;;;;98.30;44.90;;;;;;;;;;5077912;28;20017;-93
2023/03/01 05:45:36;;;;;;;92.88;44.13;;;;;;;;;;5081181;28;20031;-94
2023/03/01 05:48:03;;;;;;;82.43;39.13;;;;;;;;;;5097079;28;20031;-93
2023/03/01 05:50:30;;;;;;;73.85;36.58;;;;;;;;;;5096879;28;20024;-91
2023/03/01 05:53:00;;;;;;;76.75;36.92;;;;;;;;;;5096413;28;20337;-93
2023/03/01 05:55:27;;;;;;;64.18;35.15;;;;;;;;;;5096615;28;20033;-93
2023/03/01 05:57:53;;;;;;;60.78;30.67;;;;;;;;;;5096595;28;20329;-94
2023/03/01 06:00:38;;;;;;;54.30;28.83;;;;;;;;;;5096303;28;20475;-93
2023/03/01 06:03:04;;;;;;;62.20;31.25;;;;;;;;;;5106081;28;20038;-95
2023/03/01 06:05:30;;;;;;;61.75;30.98;;;;;;;;;;5097805;28;20013;-95
2023/03/01 06:07:59;;;;;;;51.33;27.77;;;;;;;;;;5097335;28;20067;-94
2023/03/01 06:10:25;;;;;;;50.88;27.08;;;;;;;;;;5095878;28;20031;-95
2023/03/01 06:12:51;;;;;;;64.30;30.23;;;;;;;;;;5077817;28;20040;-93
2023/03/01 06:15:17;;;;;;;78.00;35.63;;;;;;;;;;5080631;28;20020;-94
2023/03/01 06:17:45;;;;;;;68.55;32.40;;;;;;;;;;5097541;28;20421;-92
2023/03/01 06:20:14;;;;;;;60.03;33.88;;;;;;;;;;5100166;28;20028;-93
2023/03/01 06:22:40;;;;;;;50.33;29.73;;;;;;;;;;5100997;28;20024;-93
2023/03/01 06:25:07;;;;;;;44.38;26.65;;;;;;;;;;5102258;28;20020;-95
2023/03/01 06:27:33;;;;;;;50.40;28.17;;;;;;;;;;5101797;28;20389;-94
2023/03/01 06:29:59;;;;;;;49.03;29.27;;;;;;;;;;5100679;28;20426;-94
2023/03/01 06:32:25;;;;;;;72.75;33.28;;;;;;;;;;5101360;28;20027;-93
2023/03/01 06:34:51;;;;;;;75.80;32.47;;;;;;;;;;5101109;28;20074;-94
2023/03/01 06:37:17;;;;;;;54.97;28.17;;;;;;;;;;5100230;28;20393;-93
2023/03/01 06:39:43;;;;;;;59.55;29.80;;;;;;;;;;5100461;28;20021;-95
2023/03/01 06:42:09;;;;;;;78.68;33.83;;;;;;;;;;5105004;28;20031;-92
2023/03/01 06:44:36;;;;;;;91.38;37.47;;;;;;;;;;5100620;28;20024;-94
2023/03/01 06:47:03;;;;;;;60.85;30.58;;;;;;;;;;5101165;28;20417;-94
2023/03/01 06:49:29;;;;;;;44.83;26.08;;;;;;;;;;5100238;28;20123;-93
2023/03/01 06:51:56;;;;;;;52.78;28.45;;;;;;;;;;5101448;28;20069;-94
2023/03/01 06:54:22;;;;;;;56.72;30.52;;;;;;;;;;5101409;28;20036;-94
2023/03/01 06:56:48;;;;;;;44.45;26.33;;;;;;;;;;5101127;28;20027;-94
2023/03/01 06:59:15;;;;;;;38.70;25.55;;;;;;;;;;5099763;28;20052;-94
2023/03/01 07:01:41;;;;;;;52.72;26.55;;;;;;;;;;5100050;28;20020;-93
2023/03/01 07:04:07;;;;;;;48.15;28.67;;;;;;;;;;5101018;28;20028;-95
2023/03/01 07:06:33;;;;;;;47.25;28.48;;;;;;;;;;5100913;28;20021;-93
2023/03/01 07:08:59;;;;;;;46.20;28.48;;;;;;;;;;5100924;28;20035;-93
2023/03/01 07:11:25;;;;;;;44.95;27.88;;;;;;;;;;5100818;28;20036;-94
2023/03/01 07:13:51;;;;;;;56.40;26.30;;;;;;;;;;5099940;28;20031;-94
2023/03/01 07:16:20;;;;;;;39.83;25.40;;;;;;;;;;5100792;28;20028;-94
2023/03/01 07:18:46;;;;;;;41.53;27.50;;;;;;;;;;5099780;28;20090;-94
2023/03/01 07:21:13;;;;;;;45.35;27.10;;;;;;;;;;5100699;28;20035;-94
2023/03/01 07:23:39;;;;;;;39.78;26.27;;;;;;;;;;5099855;28;20337;-93
2023/03/01 07:26:05;;;;;;;44.53;27.33;;;;;;;;;;5100879;28;20054;-94
2023/03/01 07:28:35;;;;;;;41.15;26.08;;;;;;;;;;5100970;28;20036;-94
2023/03/01 07:31:07;;;;;;;42.05;26.80;;;;;;;;;;5099856;28;20028;-94
2023/03/01 07:33:33;;;;;;;45.28;27.63;;;;;;;;;;5100777;28;20099;-94
2023/03/01 07:36:01;;;;;;;39.88;27.60;;;;;;;;;;5100631;28;20032;-94
2023/03/01 07:38:27;;;;;;;43.70;27.17;;;;;;;;;;5099460;28;20337;-94
2023/03/01 07:40:53;;;;;;;45.03;27.92;;;;;;;;;;5099544;28;20398;-93
2023/03/01 07:43:20;;;;;;;44.72;28.23;;;;;;;;;;5100231;28;20056;-94
2023/03/01 07:45:46;;;;;;;72.63;35.17;;;;;;;;;;5099202;28;20069;-94
2023/03/01 07:48:12;;;;;;;99.60;42.13;;;;;;;;;;5100033;28;20431;-94
2023/03/01 07:50:38;;;;;;;65.18;33.70;;;;;;;;;;5099218;28;20413;-95
2023/03/01 07:53:04;;;;;;;62.70;35.20;;;;;;;;;;5100488;28;20423;-94
2023/03/01 07:55:30;;;;;;;55.33;33.70;;;;;;;;;;5099033;28;20031;-93
2023/03/01 07:57:56;;;;;;;51.03;32.17;;;;;;;;;;5099361;28;20441;-93
2023/03/01 08:00:23;;;;;;;51.28;32.38;;;;;;;;;;5100020;28;20409;-93
2023/03/01 08:02:49;;;;;;;53.95;33.63;;;;;;;;;;5099854;28;20024;-92
2023/03/01 08:05:15;;;;;;;50.83;32.03;;;;;;;;;;5098883;28;20070;-93
2023/03/01 08:07:41;;;;;;;55.83;35.60;;;;;;;;;;5098854;28;20032;-94
2023/03/01 08:10:07;;;;;;;52.45;34.13;;;;;;;;;;5098616;28;20035;-94
2023/03/01 08:12:33;;;;;;;59.17;37.42;;;;;;;;;;5099308;28;20032;-92
2023/03/01 08:14:59;;;;;;;51.75;33.38;;;;;;;;;;5098238;28;20039;-92
2023/03/01 08:17:25;;;;;;;46.97;30.42;;;;;;;;;;5088484;28;20135;-93
2023/03/01 08:19:51;;;;;;;46.42;28.95;;;;;;;;;;5114771;28;20052;-93
2023/03/01 08:22:17;;;;;;;43.85;28.92;;;;;;;;;;5099326;28;20029;-93
2023/03/01 08:24:43;;;;;;;43.63;29.67;;;;;;;;;;5099146;28;20406;-92
2023/03/01 08:27:11;;;;;;;41.63;29.10;;;;;;;;;;5099209;28;20024;-91
2023/03/01 08:29:38;;;;;;;53.30;31.17;;;;;;;;;;5099360;28;20043;-93
2023/03/01 08:32:04;;;;;;;45.17;27.45;;;;;;;;;;5099163;28;20459;-93
2023/03/01 08:34:31;;;;;;;39.75;27.58;;;;;;;;;;5098828;28;20065;-94
2023/03/01 08:36:58;;;;;;;42.45;28.90;;;;;;;;;;5099283;28;20020;-94
2023/03/01 08:39:24;;;;;;;41.50;27.27;;;;;;;;;;5099097;28;20069;-93
2023/03/01 08:41:50;;;;;;;73.95;40.60;;;;;;;;;;5097292;28;20020;-93
2023/03/01 08:44:16;;;;;;;91.85;57.83;;;;;;;;;;5098069;28;20428;-93
2023/03/01 08:46:43;;;;;;;55.63;38.55;;;;;;;;;;5097876;28;20024;-87
2023/03/01 08:49:11;;;;;;;48.90;31.42;;;;;;;;;;5098849;28;20056;-92
2023/03/01 08:51:37;;;;;;;44.53;30.05;;;;;;;;;;5098448;28;20139;-91
2023/03/01 08:54:04;;;;;;;45.83;30.98;;;;;;;;;;5097953;28;20051;-88
2023/03/01 08:56:30;;;;;;;49.33;30.40;;;;;;;;;;5098957;28;20028;-90
2023/03/01 08:58:57;;;;;;;69.28;36.60;;;;;;;;;;5098154;28;20044;-91
2023/03/01 09:01:23;;;;;;;53.22;33.13;;;;;;;;;;5098431;28;20450;-89
2023/03/01 09:03:49;;;;;;;43.15;28.77;;;;;;;;;;5098557;28;20181;-91
2023/03/01 09:06:15;;;;;;;49.78;29.45;;;;;;;;;;5098562;28;20028;-90
2023/03/01 09:08:42;;;;;;;44.67;29.30;;;;;;;;;;5097474;28;20020;-91
2023/03/01 09:11:10;;;;;;;56.97;32.20;;;;;;;;;;5097722;28;20455;-90
2023/03/01 09:13:36;;;;;;;57.78;32.97;;;;;;;;;;5098498;28;20107;-90
2023/03/01 09:16:03;;;;;;;52.10;31.05;;;;;;;;;;5098756;28;20043;-90
2023/03/01 09:18:30;;;;;;;45.17;29.42;;;;;;;;;;5098258;28;20032;-91
2023/03/01 09:21:07;;;;;;;45.17;30.65;;;;;;;;;;5097429;28;20028;-91
2023/03/01 09:23:36;;;;;;;43.00;28.85;;;;;;;;;;5097356;28;20028;-91
2023/03/01 09:26:02;;;;;;;51.75;31.65;;;;;;;;;;5098067;28;20040;-90
2023/03/01 09:28:28;;;;;;;52.50;35.45;;;;;;;;;;5097289;28;20030;-90
2023/03/01 09:30:54;;;;;;;99.50;49.38;;;;;;;;;;5097221;28;20058;-90
2023/03/01 09:33:20;;;;;;;55.75;35.67;;;;;;;;;;5098265;28;20406;-90
2023/03/01 09:35:47;;;;;;;67.47;37.90;;;;;;;;;;5097140;28;20020;-91
2023/03/01 09:38:14;;;;;;;69.38;43.38;;;;;;;;;;5098298;28;20344;-92
2023/03/01 09:40:47;;;;;;;63.17;38.90;;;;;;;;;;5097115;28;20032;-90
2023/03/01 09:43:19;;;;;;;49.05;31.77;;;;;;;;;;5097908;28;20397;-90
2023/03/01 09:45:46;;;;;;;59.78;38.33;;;;;;;;;;5097811;28;20021;-90
2023/03/01 09:48:21;;;;;;;56.60;35.65;;;;;;;;;;5098005;28;20024;-90
2023/03/01 09:50:48;;;;;;;46.03;30.38;;;;;;;;;;5097141;28;20039;-91
2023/03/01 09:53:16;;;;;;;50.50;30.02;;;;;;;;;;5097991;28;20052;-91
2023/03/01 09:55:45;;;;;;;48.80;30.65;;;;;;;;;;5097779;28;20024;-91
2023/03/01 09:58:23;;;;;;;56.00;34.35;;;;;;;;;;5097447;28;20453;-90
2023/03/01 10:00:50;;;;;;;53.47;33.60;;;;;;;;;;5096947;28;20021;-90
2023/03/01 10:03:18;;;;;;;46.88;31.13;;;;;;;;;;5097683;28;20418;-91
2023/03/01 10:05:44;;;;;;;47.17;30.13;;;;;;;;;;5096979;28;20021;-91
2023/03/01 10:08:30;;;;;;;49.40;31.73;;;;;;;;;;5097848;28;20039;-90
2023/03/01 10:10:57;;;;;;;44.08;30.30;;;;;;;;;;5096997;28;20039;-90
2023/03/01 10:13:41;;;;;;;47.28;31.63;;;;;;;;;;5096747;28;20114;-91
2023/03/01 10:16:14;;;;;;;45.63;32.00;;;;;;;;;;5097520;28;20035;-91
2023/03/01 10:18:40;;;;;;;49.20;32.38;;;;;;;;;;5097648;28;20032;-91
2023/03/01 10:21:15;;;;;;;47.97;32.05;;;;;;;;;;5097731;28;20024;-91
2023/03/01 10:23:41;;;;;;;43.63;29.15;;;;;;;;;;5097541;28;20028;-91
2023/03/01 10:26:26;;;;;;;53.80;34.05;;;;;;;;;;5097520;28;20055;-90
2023/03/01 10:28:55;;;;;;;55.60;36.38;;;;;;;;;;5096812;28;20165;-90
2023/03/01 10:31:27;;;;;;;43.20;30.25;;;;;;;;;;5096598;28;20035;-91
2023/03/01 10:33:55;;;;;;;41.65;28.35;;;;;;;;;;5097455;28;20107;-90
2023/03/01 10:36:21;;;;;;;43.50;29.27;;;;;;;;;;5097645;28;20028;-90
2023/03/01 10:38:49;;;;;;;40.50;27.92;;;;;;;;;;5097413;28;20055;-91
2023/03/01 10:41:15;;;;;;;40.95;27.75;;;;;;;;;;5097379;28;20098;-91
2023/03/01 10:43:44;;;;;;;39.55;26.88;;;;;;;;;;5097572;28;20020;-91
2023/03/01 10:46:25;;;;;;;40.13;28.38;;;;;;;;;;5097380;28;20062;-90
2023/03/01 10:49:10;;;;;;;45.22;29.75;;;;;;;;;;5097294;28;20035;-90
2023/03/01 10:51:36;;;;;;;41.92;29.13;;;;;;;;;;5097506;28;20410;-90
2023/03/01 10:54:03;;;;;;;41.50;28.50;;;;;;;;;;5097458;28;20039;-90
2023/03/01 10:56:33;;;;;;;45.50;31.88;;;;;;;;;;5097340;28;20024;-90
2023/03/01 10:59:00;;;;;;;40.70;28.67;;;;;;;;;;5097081;28;20063;-90
2023/03/01 11:01:28;;;;;;;42.85;29.17;;;;;;;;;;5097286;28;20025;-90
2023/03/01 11:04:06;;;;;;;40.95;29.10;;;;;;;;;;5096335;28;20016;-89
2023/03/01 11:06:36;;;;;;;51.13;34.20;;;;;;;;;;5099192;28;20033;-91
2023/03/01 11:09:22;;;;;;;40.83;28.13;;;;;;;;;;5100847;28;20028;-91
2023/03/01 11:11:55;;;;;;;40.40;27.02;;;;;;;;;;5100720;28;20027;-91
2023/03/01 11:14:34;;;;;;;39.60;27.00;;;;;;;;;;5100734;28;20394;-90
2023/03/01 11:17:04;;;;;;;38.67;27.17;;;;;;;;;;5099438;28;20038;-91
2023/03/01 11:19:30;;;;;;;35.30;24.98;;;;;;;;;;5099674;28;20034;-91
2023/03/01 11:22:00;;;;;;;36.33;24.90;;;;;;;;;;5100664;28;20031;-91
2023/03/01 11:24:35;;;;;;;37.13;25.27;;;;;;;;;;5100755;28;20417;-92
2023/03/01 11:27:04;;;;;;;39.80;25.98;;;;;;;;;;5100711;28;20016;-90
2023/03/01 11:29:38;;;;;;;35.42;24.25;;;;;;;;;;5099402;28;20084;-91
2023/03/01 11:32:05;;;;;;;37.17;25.05;;;;;;;;;;5100515;28;20036;-92
2023/03/01 11:34:50;;;;;;;35.72;24.50;;;;;;;;;;5100453;28;20028;-91
2023/03/01 11:37:30;;;;;;;40.97;27.15;;;;;;;;;;5100210;28;20020;-91
2023/03/01 11:40:00;;;;;;;42.95;28.73;;;;;;;;;;5100392;28;20024;-92
2023/03/01 11:42:36;;;;;;;37.78;25.90;;;;;;;;;;5099664;28;20021;-92
2023/03/01 11:45:07;;;;;;;43.25;26.58;;;;;;;;;;5100054;28;20016;-91
2023/03/01 11:47:42;;;;;;;37.83;25.38;;;;;;;;;;5100240;28;20348;-91
2023/03/01 11:50:08;;;;;;;37.80;24.52;;;;;;;;;;5099293;28;20024;-91
2023/03/01 11:52:57;;;;;;;33.22;24.08;;;;;;;;;;5100208;28;20024;-93
2023/03/01 11:55:23;;;;;;;35.38;23.80;;;;;;;;;;5099692;28;20036;-91
2023/03/01 11:57:58;;;;;;;39.85;25.67;;;;;;;;;;5098747;28;20044;-91
2023/03/01 12:00:33;;;;;;;53.60;28.40;;;;;;;;;;5100150;28;20036;-92
2023/03/01 12:03:02;;;;;;;41.50;26.15;;;;;;;;;;5099984;28;20038;-91
2023/03/01 12:05:48;;;;;;;39.17;26.63;;;;;;;;;;5099700;28;20052;-91
2023/03/01 12:08:17;;;;;;;43.95;27.92;;;;;;;;;;5098883;28;20028;-92
2023/03/01 12:11:02;;;;;;;45.78;26.52;;;;;;;;;;5099693;28;20111;-91
2023/03/01 12:13:31;;;;;;;34.63;23.67;;;;;;;;;;5099984;28;20028;-91
2023/03/01 12:16:17;;;;;;;41.42;25.10;;;;;;;;;;5099684;28;20065;-91
2023/03/01 12:19:02;;;;;;;35.33;25.27;;;;;;;;;;5099743;28;20028;-91
2023/03/01 12:21:37;;;;;;;46.53;28.17;;;;;;;;;;5098704;28;20027;-91
2023/03/01 12:24:03;;;;;;;34.25;23.65;;;;;;;;;;5098606;28;20028;-91
2023/03/01 12:26:45;;;;;;;53.33;31.30;;;;;;;;;;5099071;28;20307;-91
2023/03/01 12:29:31;;;;;;;47.78;29.27;;;;;;;;;;5099649;28;20115;-91
2023/03/01 12:31:57;;;;;;;37.38;25.00;;;;;;;;;;5099538;28;20337;-90
2023/03/01 12:34:29;;;;;;;35.55;24.42;;;;;;;;;;5098769;28;20418;-91
2023/03/01 12:36:55;;;;;;;;;;;;;;;;;;5100110;28;20051;-91
2023/03/01 12:39:27;;;;;;;37.25;24.95;;;;;;;;;;5099582;28;19969;-91
2023/03/01 12:41:53;;;;;;;38.70;25.38;;;;;;;;;;5098403;28;20099;-91
2023/03/01 12:44:19;;;;;;;31.63;23.73;;;;;;;;;;5098515;28;20209;-91
2023/03/01 12:46:45;;;;;;;38.50;26.42;;;;;;;;;;5098566;28;20016;-91
2023/03/01 12:49:14;;;;;;;34.60;24.63;;;;;;;;;;5099146;28;20027;-91
2023/03/01 12:51:42;;;;;;;35.08;26.02;;;;;;;;;;5099405;28;20051;-91
2023/03/01 12:54:21;;;;;;;37.40;26.17;;;;;;;;;;5098440;28;20024;-91
2023/03/01 12:56:52;;;;;;;40.90;26.23;;;;;;;;;;5099059;28;20127;-92
2023/03/01 12:59:25;;;;;;;34.70;25.40;;;;;;;;;;5099356;28;20330;-91
2023/03/01 13:01:54;;;;;;;33.53;24.73;;;;;;;;;;5099393;28;20028;-88
2023/03/01 13:04:37;;;;;;;31.15;22.65;;;;;;;;;;5098580;28;20418;-87
2023/03/01 13:07:16;;;;;;;41.50;27.50;;;;;;;;;;5098786;28;20426;-92
2023/03/01 13:10:01;;;;;;;36.63;26.20;;;;;;;;;;5099323;28;20103;-92
2023/03/01 13:12:44;;;;;;;36.00;25.33;;;;;;;;;;5098604;28;20024;-91
2023/03/01 13:15:31;;;;;;;34.60;24.65;;;;;;;;;;5099497;28;20086;-91
2023/03/01 13:17:58;;;;;;;33.72;24.75;;;;;;;;;;5017443;28;20113;-91
2023/03/01 13:20:54;;;;;;;36.85;26.55;;;;;;;;;;5017291;28;20124;-91
2023/03/01 13:23:20;;;;;;;34.45;27.05;;;;;;;;;;4978329;28;20034;-92
2023/03/01 13:26:04;;;;;;;40.92;30.73;;;;;;;;;;4978095;28;20038;-91
2023/03/01 13:28:41;;;;;;;39.47;28.70;;;;;;;;;;4977503;28;20047;-89
2023/03/01 13:34:31;;;;;;;37.63;27.75;;;;;;;;;;4977824;28;20025;-91
2023/03/01 13:37:09;;;;;;;35.15;26.05;;;;;;;;;;4977589;28;20042;-90
2023/03/01 13:39:40;;;;;;;39.92;27.98;;;;;;;;;;4977266;28;20035;-91
2023/03/01 13:42:24;;;;;;;35.75;26.30;;;;;;;;;;4977141;28;20058;-91
2023/03/01 13:44:50;;;;;;;39.03;27.02;;;;;;;;;;4977231;28;20333;-91
2023/03/01 13:47:18;;;;;;;42.50;29.10;;;;;;;;;;4977412;28;20125;-91
2023/03/01 13:49:49;;;;;;;45.45;30.75;;;;;;;;;;4977266;28;20030;-90
2023/03/01 13:52:30;;;;;;;49.65;34.10;;;;;;;;;;4977312;28;20030;-90
2023/03/01 13:54:57;;;;;;;37.63;27.83;;;;;;;;;;5008137;28;20043;-90
2023/03/01 13:57:34;;;;;;;41.03;28.75;;;;;;;;;;5055810;28;20064;-90
2023/03/01 14:00:00;;;;;;;38.30;27.35;;;;;;;;;;5081508;28;20044;-90
2023/03/01 14:02:26;;;;;;;44.90;29.75;;;;;;;;;;5098027;28;20096;-89
2023/03/01 14:04:59;;;;;;;44.20;29.83;;;;;;;;;;5096964;28;20028;-89
2023/03/01 14:07:29;;;;;;;50.08;32.90;;;;;;;;;;5098002;28;20032;-81
2023/03/01 14:10:00;;;;;;;52.00;34.90;;;;;;;;;;5097063;28;20016;-80
2023/03/01 14:12:41;;;;;;;51.92;33.05;;;;;;;;;;5096868;28;20020;-80
2023/03/01 14:15:16;;;;;;;39.88;27.88;;;;;;;;;;5097177;28;20306;-80
2023/03/01 14:17:42;;;;;;;35.60;26.05;;;;;;;;;;5095947;28;20024;-80
2023/03/01 14:20:22;;;;;;;41.28;28.25;;;;;;;;;;5096953;28;20027;-80
2023/03/01 14:22:49;;;;;;;42.78;29.13;;;;;;;;;;5096906;28;20077;-80
2023/03/01 14:25:26;;;;;;;41.55;28.08;;;;;;;;;;5097001;28;20013;-80
2023/03/01 14:27:55;;;;;;;50.22;30.23;;;;;;;;;;5095897;28;20047;-80
2023/03/01 14:30:25;;;;;;;50.13;32.22;;;;;;;;;;5096819;28;20056;-80
2023/03/01 14:32:56;;;;;;;45.15;31.20;;;;;;;;;;5097036;28;20020;-81
2023/03/01 14:35:23;;;;;;;47.50;31.88;;;;;;;;;;5096821;28;20028;-80
2023/03/01 14:37:49;;;;;;;50.40;33.95;;;;;;;;;;5096819;28;20043;-80
2023/03/01 14:40:41;;;;;;;40.13;29.38;;;;;;;;;;5098111;28;20042;-80
2023/03/01 14:43:12;;;;;;;41.42;28.98;;;;;;;;;;5096109;28;20028;-80
2023/03/01 14:45:38;;;;;;;37.80;26.95;;;;;;;;;;5099512;28;20024;-80
2023/03/01 14:48:06;;;;;;;41.00;27.88;;;;;;;;;;5100621;28;20024;-80
2023/03/01 14:50:34;;;;;;;38.17;28.35;;;;;;;;;;5100688;28;20024;-80